Oasis, Nevada
Current Conditions -  °F | °C
As of 7:15 AM on Thursday 23 Oct 2014 (Local Time) from KENV Reporting Station
Clear Clear  
Wind Chill: 43°   Ceiling: Unl
Heat Index: 43°   Visibility: 10mi
Dew Point: 30°   Wind: 0mph
Humidity: 61%   Direction: NA
Pressure: 30.14"   Gusts: NA
Location:  41.0114°N, 114.57°W
Report Text: KENV 231415Z AUTO 00000KT 10SM CLR 06/M01 A3014 RMK AO1
Loading
Personal Weather Stations






























Interactive Weather Map
Tropical Storm Tracking
New forecast layout! Learn more

10-Day Weather Forecast

Advertisements
Track Severe Weather on mobile